sensor_id;sensor_type;location;lat;lon;timestamp;P1;durP1;ratioP1;P2;durP2;ratioP2
60436;SDS011;46289;51.992;4.498;2024-03-29T00:01:46;6.25;;;1.90;;
60436;SDS011;46289;51.992;4.498;2024-03-29T00:03:47;6.75;;;2.38;;
60436;SDS011;46289;51.992;4.498;2024-03-29T00:05:51;2.53;;;1.30;;
60436;SDS011;46289;51.992;4.498;2024-03-29T00:07:55;6.75;;;1.90;;
60436;SDS011;46289;51.992;4.498;2024-03-29T00:09:56;7.55;;;2.30;;
60436;SDS011;46289;51.992;4.498;2024-03-29T00:11:58;4.75;;;1.65;;
60436;SDS011;46289;51.992;4.498;2024-03-29T00:13:59;3.05;;;1.70;;
60436;SDS011;46289;51.992;4.498;2024-03-29T00:16:00;7.00;;;1.60;;
60436;SDS011;46289;51.992;4.498;2024-03-29T00:18:02;4.80;;;1.92;;
60436;SDS011;46289;51.992;4.498;2024-03-29T00:20:04;3.30;;;1.50;;
60436;SDS011;46289;51.992;4.498;2024-03-29T00:22:06;3.90;;;1.80;;
60436;SDS011;46289;51.992;4.498;2024-03-29T00:24:10;8.13;;;1.67;;
60436;SDS011;46289;51.992;4.498;2024-03-29T00:26:12;4.47;;;1.73;;
60436;SDS011;46289;51.992;4.498;2024-03-29T00:28:13;2.92;;;1.35;;
60436;SDS011;46289;51.992;4.498;2024-03-29T00:30:14;4.60;;;1.48;;
60436;SDS011;46289;51.992;4.498;2024-03-29T00:32:16;3.28;;;1.70;;
60436;SDS011;46289;51.992;4.498;2024-03-29T00:34:17;4.63;;;1.88;;
60436;SDS011;46289;51.992;4.498;2024-03-29T00:36:19;3.80;;;2.13;;
60436;SDS011;46289;51.992;4.498;2024-03-29T00:38:20;3.83;;;1.30;;
60436;SDS011;46289;51.992;4.498;2024-03-29T00:40:24;4.97;;;1.65;;
60436;SDS011;46289;51.992;4.498;2024-03-29T00:42:25;2.78;;;1.33;;
60436;SDS011;46289;51.992;4.498;2024-03-29T00:44:26;3.40;;;1.75;;
60436;SDS011;46289;51.992;4.498;2024-03-29T00:46:27;3.13;;;1.50;;
60436;SDS011;46289;51.992;4.498;2024-03-29T00:48:29;3.50;;;1.88;;
60436;SDS011;46289;51.992;4.498;2024-03-29T00:50:30;5.63;;;1.48;;
60436;SDS011;46289;51.992;4.498;2024-03-29T00:52:37;3.50;;;1.60;;
60436;SDS011;46289;51.992;4.498;2024-03-29T00:54:38;4.85;;;1.77;;
60436;SDS011;46289;51.992;4.498;2024-03-29T00:56:42;3.83;;;1.48;;
60436;SDS011;46289;51.992;4.498;2024-03-29T00:58:43;3.05;;;1.60;;
60436;SDS011;46289;51.992;4.498;2024-03-29T01:00:45;5.57;;;1.50;;
60436;SDS011;46289;51.992;4.498;2024-03-29T01:02:46;4.70;;;1.58;;
60436;SDS011;46289;51.992;4.498;2024-03-29T01:04:47;5.55;;;2.15;;
60436;SDS011;46289;51.992;4.498;2024-03-29T01:06:48;6.63;;;1.67;;
60436;SDS011;46289;51.992;4.498;2024-03-29T01:08:49;5.82;;;1.70;;
60436;SDS011;46289;51.992;4.498;2024-03-29T01:10:51;6.30;;;1.33;;
60436;SDS011;46289;51.992;4.498;2024-03-29T01:12:54;4.90;;;1.25;;
60436;SDS011;46289;51.992;4.498;2024-03-29T01:14:56;1.75;;;1.25;;
60436;SDS011;46289;51.992;4.498;2024-03-29T01:16:57;5.53;;;2.08;;
60436;SDS011;46289;51.992;4.498;2024-03-29T01:18:59;4.15;;;1.48;;
60436;SDS011;46289;51.992;4.498;2024-03-29T01:21:00;8.80;;;1.60;;
60436;SDS011;46289;51.992;4.498;2024-03-29T01:23:01;2.75;;;1.40;;
60436;SDS011;46289;51.992;4.498;2024-03-29T01:25:03;5.70;;;1.83;;
60436;SDS011;46289;51.992;4.498;2024-03-29T01:27:04;3.85;;;1.60;;
60436;SDS011;46289;51.992;4.498;2024-03-29T01:29:08;5.45;;;1.42;;
60436;SDS011;46289;51.992;4.498;2024-03-29T01:31:09;3.10;;;1.70;;
60436;SDS011;46289;51.992;4.498;2024-03-29T01:33:11;3.42;;;1.73;;
60436;SDS011;46289;51.992;4.498;2024-03-29T01:35:12;4.90;;;1.92;;
60436;SDS011;46289;51.992;4.498;2024-03-29T01:37:16;4.18;;;1.38;;
60436;SDS011;46289;51.992;4.498;2024-03-29T01:39:17;3.92;;;1.45;;
60436;SDS011;46289;51.992;4.498;2024-03-29T01:41:18;4.28;;;1.35;;
60436;SDS011;46289;51.992;4.498;2024-03-29T01:43:20;3.63;;;2.17;;
60436;SDS011;46289;51.992;4.498;2024-03-29T01:45:24;1.42;;;1.13;;
60436;SDS011;46289;51.992;4.498;2024-03-29T01:47:25;5.13;;;1.60;;
60436;SDS011;46289;51.992;4.498;2024-03-29T01:49:26;3.65;;;1.60;;
60436;SDS011;46289;51.992;4.498;2024-03-29T01:51:28;6.93;;;1.45;;
60436;SDS011;46289;51.992;4.498;2024-03-29T01:53:29;1.55;;;1.40;;
60436;SDS011;46289;51.992;4.498;2024-03-29T01:55:31;7.20;;;2.03;;
60436;SDS011;46289;51.992;4.498;2024-03-29T01:57:33;9.85;;;1.60;;
60436;SDS011;46289;51.992;4.498;2024-03-29T01:59:34;5.18;;;1.80;;
60436;SDS011;46289;51.992;4.498;2024-03-29T02:01:38;4.97;;;1.40;;
60436;SDS011;46289;51.992;4.498;2024-03-29T02:03:41;6.63;;;1.65;;
60436;SDS011;46289;51.992;4.498;2024-03-29T02:05:42;5.25;;;1.60;;
60436;SDS011;46289;51.992;4.498;2024-03-29T02:07:44;3.40;;;1.35;;
60436;SDS011;46289;51.992;4.498;2024-03-29T02:09:46;2.10;;;1.40;;
60436;SDS011;46289;51.992;4.498;2024-03-29T02:11:47;4.15;;;1.65;;
60436;SDS011;46289;51.992;4.498;2024-03-29T02:13:48;3.05;;;1.23;;
60436;SDS011;46289;51.992;4.498;2024-03-29T02:15:50;1.67;;;1.00;;
60436;SDS011;46289;51.992;4.498;2024-03-29T02:17:54;3.03;;;1.38;;
60436;SDS011;46289;51.992;4.498;2024-03-29T02:19:55;2.63;;;1.35;;
60436;SDS011;46289;51.992;4.498;2024-03-29T02:21:57;3.17;;;1.58;;
60436;SDS011;46289;51.992;4.498;2024-03-29T02:24:04;2.58;;;1.60;;
60436;SDS011;46289;51.992;4.498;2024-03-29T02:26:06;3.05;;;1.60;;
60436;SDS011;46289;51.992;4.498;2024-03-29T02:28:09;3.38;;;1.55;;
60436;SDS011;46289;51.992;4.498;2024-03-29T02:32:13;1.80;;;1.40;;
60436;SDS011;46289;51.992;4.498;2024-03-29T02:34:15;1.95;;;1.10;;
60436;SDS011;46289;51.992;4.498;2024-03-29T02:36:16;7.18;;;2.22;;
60436;SDS011;46289;51.992;4.498;2024-03-29T02:38:17;7.70;;;1.80;;
60436;SDS011;46289;51.992;4.498;2024-03-29T02:40:21;3.90;;;1.70;;
60436;SDS011;46289;51.992;4.498;2024-03-29T02:42:25;3.30;;;1.63;;
60436;SDS011;46289;51.992;4.498;2024-03-29T02:44:26;2.60;;;1.27;;
60436;SDS011;46289;51.992;4.498;2024-03-29T02:46:27;3.28;;;1.45;;
60436;SDS011;46289;51.992;4.498;2024-03-29T02:48:28;3.60;;;1.83;;
60436;SDS011;46289;51.992;4.498;2024-03-29T02:50:29;3.22;;;1.15;;
60436;SDS011;46289;51.992;4.498;2024-03-29T02:52:30;4.22;;;1.48;;
60436;SDS011;46289;51.992;4.498;2024-03-29T02:54:32;4.80;;;1.33;;
60436;SDS011;46289;51.992;4.498;2024-03-29T02:56:36;3.65;;;1.92;;
60436;SDS011;46289;51.992;4.498;2024-03-29T02:58:37;3.90;;;1.60;;
60436;SDS011;46289;51.992;4.498;2024-03-29T03:00:38;2.08;;;1.23;;
60436;SDS011;46289;51.992;4.498;2024-03-29T03:02:40;3.53;;;1.70;;
60436;SDS011;46289;51.992;4.498;2024-03-29T03:04:41;1.45;;;1.27;;
60436;SDS011;46289;51.992;4.498;2024-03-29T03:06:42;4.75;;;1.80;;
60436;SDS011;46289;51.992;4.498;2024-03-29T03:08:43;5.45;;;1.52;;
60436;SDS011;46289;51.992;4.498;2024-03-29T03:10:59;4.13;;;1.75;;
60436;SDS011;46289;51.992;4.498;2024-03-29T03:13:03;5.00;;;1.67;;
60436;SDS011;46289;51.992;4.498;2024-03-29T03:15:05;5.22;;;2.05;;
60436;SDS011;46289;51.992;4.498;2024-03-29T03:17:07;1.48;;;1.23;;
60436;SDS011;46289;51.992;4.498;2024-03-29T03:19:08;3.53;;;1.33;;
60436;SDS011;46289;51.992;4.498;2024-03-29T03:21:09;4.38;;;1.70;;
60436;SDS011;46289;51.992;4.498;2024-03-29T03:23:10;2.50;;;1.23;;
60436;SDS011;46289;51.992;4.498;2024-03-29T03:25:12;2.25;;;1.50;;
60436;SDS011;46289;51.992;4.498;2024-03-29T03:27:13;2.00;;;1.10;;
60436;SDS011;46289;51.992;4.498;2024-03-29T03:29:17;2.67;;;1.42;;
60436;SDS011;46289;51.992;4.498;2024-03-29T03:31:18;2.00;;;1.00;;
60436;SDS011;46289;51.992;4.498;2024-03-29T03:33:19;2.65;;;1.35;;
60436;SDS011;46289;51.992;4.498;2024-03-29T03:35:20;3.08;;;1.58;;
60436;SDS011;46289;51.992;4.498;2024-03-29T03:37:22;1.88;;;1.13;;
60436;SDS011;46289;51.992;4.498;2024-03-29T03:39:23;3.45;;;1.10;;
60436;SDS011;46289;51.992;4.498;2024-03-29T03:41:24;3.72;;;1.08;;
60436;SDS011;46289;51.992;4.498;2024-03-29T03:43:25;3.28;;;1.27;;
60436;SDS011;46289;51.992;4.498;2024-03-29T03:45:33;2.92;;;1.27;;
60436;SDS011;46289;51.992;4.498;2024-03-29T03:47:34;3.55;;;1.17;;
60436;SDS011;46289;51.992;4.498;2024-03-29T03:49:35;3.75;;;1.23;;
60436;SDS011;46289;51.992;4.498;2024-03-29T03:51:36;2.75;;;1.25;;
60436;SDS011;46289;51.992;4.498;2024-03-29T03:53:38;1.27;;;1.02;;
60436;SDS011;46289;51.992;4.498;2024-03-29T03:55:39;1.10;;;1.08;;
60436;SDS011;46289;51.992;4.498;2024-03-29T03:57:40;1.60;;;0.93;;
60436;SDS011;46289;51.992;4.498;2024-03-29T03:59:41;1.13;;;1.02;;
60436;SDS011;46289;51.992;4.498;2024-03-29T04:01:45;3.10;;;1.13;;
60436;SDS011;46289;51.992;4.498;2024-03-29T04:03:46;1.38;;;0.90;;
60436;SDS011;46289;51.992;4.498;2024-03-29T04:05:47;2.53;;;0.95;;
60436;SDS011;46289;51.992;4.498;2024-03-29T04:07:48;1.27;;;1.00;;
60436;SDS011;46289;51.992;4.498;2024-03-29T04:09:50;3.45;;;1.17;;
60436;SDS011;46289;51.992;4.498;2024-03-29T04:11:51;3.10;;;1.10;;
60436;SDS011;46289;51.992;4.498;2024-03-29T04:13:52;1.25;;;0.98;;
60436;SDS011;46289;51.992;4.498;2024-03-29T04:16:00;1.85;;;1.60;;
60436;SDS011;46289;51.992;4.498;2024-03-29T04:18:04;2.83;;;1.33;;
60436;SDS011;46289;51.992;4.498;2024-03-29T04:20:06;2.05;;;0.70;;
60436;SDS011;46289;51.992;4.498;2024-03-29T04:22:09;3.83;;;1.10;;
60436;SDS011;46289;51.992;4.498;2024-03-29T04:24:10;2.90;;;1.23;;
60436;SDS011;46289;51.992;4.498;2024-03-29T04:26:11;0.70;;;0.70;;
60436;SDS011;46289;51.992;4.498;2024-03-29T04:28:12;2.15;;;0.90;;
60436;SDS011;46289;51.992;4.498;2024-03-29T04:30:13;4.95;;;1.90;;
60436;SDS011;46289;51.992;4.498;2024-03-29T04:32:14;1.15;;;1.00;;
60436;SDS011;46289;51.992;4.498;2024-03-29T04:34:18;1.00;;;1.00;;
60436;SDS011;46289;51.992;4.498;2024-03-29T04:36:19;4.07;;;1.50;;
60436;SDS011;46289;51.992;4.498;2024-03-29T04:38:20;3.22;;;1.02;;
60436;SDS011;46289;51.992;4.498;2024-03-29T04:40:22;4.03;;;1.23;;
60436;SDS011;46289;51.992;4.498;2024-03-29T04:42:23;2.05;;;1.00;;
60436;SDS011;46289;51.992;4.498;2024-03-29T04:44:24;6.22;;;1.02;;
60436;SDS011;46289;51.992;4.498;2024-03-29T04:46:26;0.93;;;0.80;;
60436;SDS011;46289;51.992;4.498;2024-03-29T04:48:29;1.02;;;0.75;;
60436;SDS011;46289;51.992;4.498;2024-03-29T04:50:33;1.23;;;1.10;;
60436;SDS011;46289;51.992;4.498;2024-03-29T04:52:34;2.05;;;1.40;;
60436;SDS011;46289;51.992;4.498;2024-03-29T04:54:35;0.93;;;0.80;;
60436;SDS011;46289;51.992;4.498;2024-03-29T04:56:37;1.58;;;0.90;;
60436;SDS011;46289;51.992;4.498;2024-03-29T04:58:41;1.05;;;0.95;;
60436;SDS011;46289;51.992;4.498;2024-03-29T05:00:42;2.25;;;0.90;;
60436;SDS011;46289;51.992;4.498;2024-03-29T05:02:43;2.05;;;1.20;;
60436;SDS011;46289;51.992;4.498;2024-03-29T05:04:44;0.63;;;0.63;;
60436;SDS011;46289;51.992;4.498;2024-03-29T05:06:48;1.92;;;1.17;;
60436;SDS011;46289;51.992;4.498;2024-03-29T05:08:53;0.90;;;0.85;;
60436;SDS011;46289;51.992;4.498;2024-03-29T05:10:57;2.05;;;1.02;;
60436;SDS011;46289;51.992;4.498;2024-03-29T05:12:58;1.85;;;1.17;;
60436;SDS011;46289;51.992;4.498;2024-03-29T05:14:59;1.65;;;1.23;;
60436;SDS011;46289;51.992;4.498;2024-03-29T05:17:00;1.60;;;0.85;;
60436;SDS011;46289;51.992;4.498;2024-03-29T05:19:01;2.95;;;0.98;;
60436;SDS011;46289;51.992;4.498;2024-03-29T05:21:03;1.38;;;0.82;;
60436;SDS011;46289;51.992;4.498;2024-03-29T05:23:07;2.33;;;1.20;;
60436;SDS011;46289;51.992;4.498;2024-03-29T05:25:08;0.90;;;0.90;;
60436;SDS011;46289;51.992;4.498;2024-03-29T05:27:11;2.60;;;0.90;;
60436;SDS011;46289;51.992;4.498;2024-03-29T05:31:14;2.55;;;1.63;;
60436;SDS011;46289;51.992;4.498;2024-03-29T05:33:15;3.70;;;1.27;;
60436;SDS011;46289;51.992;4.498;2024-03-29T05:35:16;2.33;;;1.00;;
60436;SDS011;46289;51.992;4.498;2024-03-29T05:37:18;1.02;;;0.93;;
60436;SDS011;46289;51.992;4.498;2024-03-29T05:39:21;1.98;;;1.13;;
60436;SDS011;46289;51.992;4.498;2024-03-29T05:41:23;3.22;;;1.20;;
60436;SDS011;46289;51.992;4.498;2024-03-29T05:43:24;3.00;;;1.25;;
60436;SDS011;46289;51.992;4.498;2024-03-29T05:45:25;1.00;;;0.98;;
60436;SDS011;46289;51.992;4.498;2024-03-29T05:49:28;1.27;;;0.90;;
60436;SDS011;46289;51.992;4.498;2024-03-29T05:51:29;1.20;;;1.10;;
60436;SDS011;46289;51.992;4.498;2024-03-29T05:53:31;0.70;;;0.70;;
60436;SDS011;46289;51.992;4.498;2024-03-29T05:55:34;1.52;;;1.10;;
60436;SDS011;46289;51.992;4.498;2024-03-29T05:57:36;1.08;;;1.00;;
60436;SDS011;46289;51.992;4.498;2024-03-29T05:59:37;1.10;;;0.80;;
60436;SDS011;46289;51.992;4.498;2024-03-29T06:01:39;1.27;;;0.98;;
60436;SDS011;46289;51.992;4.498;2024-03-29T06:03:40;1.67;;;1.23;;
60436;SDS011;46289;51.992;4.498;2024-03-29T06:05:41;2.97;;;0.98;;
60436;SDS011;46289;51.992;4.498;2024-03-29T06:07:42;1.10;;;1.00;;
60436;SDS011;46289;51.992;4.498;2024-03-29T06:09:43;0.90;;;0.90;;
60436;SDS011;46289;51.992;4.498;2024-03-29T06:11:47;2.50;;;1.48;;
60436;SDS011;46289;51.992;4.498;2024-03-29T06:13:48;2.15;;;1.27;;
60436;SDS011;46289;51.992;4.498;2024-03-29T06:16:04;2.83;;;1.10;;
60436;SDS011;46289;51.992;4.498;2024-03-29T06:18:20;5.55;;;1.17;;
60436;SDS011;46289;51.992;4.498;2024-03-29T06:20:21;2.65;;;1.25;;
60436;SDS011;46289;51.992;4.498;2024-03-29T06:22:23;2.53;;;1.30;;
60436;SDS011;46289;51.992;4.498;2024-03-29T06:24:24;3.45;;;1.25;;
60436;SDS011;46289;51.992;4.498;2024-03-29T06:26:25;2.17;;;1.10;;
60436;SDS011;46289;51.992;4.498;2024-03-29T06:28:29;1.20;;;1.15;;
60436;SDS011;46289;51.992;4.498;2024-03-29T06:30:30;5.20;;;1.88;;
60436;SDS011;46289;51.992;4.498;2024-03-29T06:32:32;2.63;;;1.60;;
60436;SDS011;46289;51.992;4.498;2024-03-29T06:34:33;3.00;;;1.35;;
60436;SDS011;46289;51.992;4.498;2024-03-29T06:36:34;4.15;;;1.75;;
60436;SDS011;46289;51.992;4.498;2024-03-29T06:38:35;2.95;;;1.17;;
60436;SDS011;46289;51.992;4.498;2024-03-29T06:40:36;2.42;;;1.30;;
60436;SDS011;46289;51.992;4.498;2024-03-29T06:42:38;1.08;;;1.08;;
60436;SDS011;46289;51.992;4.498;2024-03-29T06:44:42;2.15;;;1.55;;
60436;SDS011;46289;51.992;4.498;2024-03-29T06:46:43;2.75;;;1.50;;
60436;SDS011;46289;51.992;4.498;2024-03-29T06:48:44;1.73;;;1.63;;
60436;SDS011;46289;51.992;4.498;2024-03-29T06:50:45;1.58;;;1.10;;
60436;SDS011;46289;51.992;4.498;2024-03-29T06:52:46;5.88;;;1.50;;
60436;SDS011;46289;51.992;4.498;2024-03-29T06:54:48;1.17;;;1.15;;
60436;SDS011;46289;51.992;4.498;2024-03-29T06:56:49;2.88;;;1.75;;
60436;SDS011;46289;51.992;4.498;2024-03-29T06:58:50;2.58;;;1.48;;
60436;SDS011;46289;51.992;4.498;2024-03-29T07:00:53;2.85;;;1.30;;
60436;SDS011;46289;51.992;4.498;2024-03-29T07:02:54;2.20;;;1.45;;
60436;SDS011;46289;51.992;4.498;2024-03-29T07:04:56;1.25;;;1.15;;
60436;SDS011;46289;51.992;4.498;2024-03-29T07:06:58;3.67;;;1.27;;
60436;SDS011;46289;51.992;4.498;2024-03-29T07:08:59;1.65;;;1.10;;
60436;SDS011;46289;51.992;4.498;2024-03-29T07:11:01;3.45;;;1.52;;
60436;SDS011;46289;51.992;4.498;2024-03-29T07:13:02;1.25;;;1.15;;
60436;SDS011;46289;51.992;4.498;2024-03-29T07:15:04;2.22;;;1.25;;
60436;SDS011;46289;51.992;4.498;2024-03-29T07:17:08;2.38;;;1.60;;
60436;SDS011;46289;51.992;4.498;2024-03-29T07:19:09;1.88;;;1.25;;
60436;SDS011;46289;51.992;4.498;2024-03-29T07:21:11;2.38;;;1.40;;
60436;SDS011;46289;51.992;4.498;2024-03-29T07:23:12;1.40;;;1.30;;
60436;SDS011;46289;51.992;4.498;2024-03-29T07:25:13;2.17;;;1.60;;
60436;SDS011;46289;51.992;4.498;2024-03-29T07:27:14;2.55;;;1.58;;
60436;SDS011;46289;51.992;4.498;2024-03-29T07:29:16;1.92;;;1.33;;
60436;SDS011;46289;51.992;4.498;2024-03-29T07:31:17;3.90;;;1.48;;
60436;SDS011;46289;51.992;4.498;2024-03-29T07:33:20;1.52;;;1.33;;
60436;SDS011;46289;51.992;4.498;2024-03-29T07:35:23;3.15;;;1.52;;
60436;SDS011;46289;51.992;4.498;2024-03-29T07:37:25;1.63;;;1.35;;
60436;SDS011;46289;51.992;4.498;2024-03-29T07:39:26;1.92;;;1.70;;
60436;SDS011;46289;51.992;4.498;2024-03-29T07:41:27;1.77;;;1.60;;
60436;SDS011;46289;51.992;4.498;2024-03-29T07:43:36;2.45;;;1.70;;
60436;SDS011;46289;51.992;4.498;2024-03-29T07:45:39;4.63;;;2.00;;
60436;SDS011;46289;51.992;4.498;2024-03-29T07:47:41;3.47;;;2.00;;
60436;SDS011;46289;51.992;4.498;2024-03-29T07:49:44;3.03;;;2.00;;
60436;SDS011;46289;51.992;4.498;2024-03-29T07:51:46;2.30;;;1.48;;
60436;SDS011;46289;51.992;4.498;2024-03-29T07:53:47;2.60;;;2.03;;
60436;SDS011;46289;51.992;4.498;2024-03-29T07:55:49;3.70;;;1.90;;
60436;SDS011;46289;51.992;4.498;2024-03-29T07:57:50;5.37;;;2.53;;
60436;SDS011;46289;51.992;4.498;2024-03-29T07:59:51;3.50;;;2.08;;
60436;SDS011;46289;51.992;4.498;2024-03-29T08:01:52;3.63;;;2.22;;
60436;SDS011;46289;51.992;4.498;2024-03-29T08:03:53;4.47;;;2.35;;
60436;SDS011;46289;51.992;4.498;2024-03-29T08:06:00;3.20;;;2.00;;
60436;SDS011;46289;51.992;4.498;2024-03-29T08:08:03;4.70;;;2.10;;
60436;SDS011;46289;51.992;4.498;2024-03-29T08:10:05;6.13;;;2.75;;
60436;SDS011;46289;51.992;4.498;2024-03-29T08:12:07;4.00;;;2.42;;
60436;SDS011;46289;51.992;4.498;2024-03-29T08:14:11;3.85;;;2.50;;
60436;SDS011;46289;51.992;4.498;2024-03-29T08:16:12;7.97;;;2.55;;
60436;SDS011;46289;51.992;4.498;2024-03-29T08:18:13;6.72;;;2.53;;
60436;SDS011;46289;51.992;4.498;2024-03-29T08:20:14;3.95;;;2.28;;
60436;SDS011;46289;51.992;4.498;2024-03-29T08:22:18;4.45;;;2.42;;
60436;SDS011;46289;51.992;4.498;2024-03-29T08:24:19;3.85;;;2.42;;
60436;SDS011;46289;51.992;4.498;2024-03-29T08:26:20;5.97;;;2.42;;
60436;SDS011;46289;51.992;4.498;2024-03-29T08:28:22;8.13;;;2.58;;
60436;SDS011;46289;51.992;4.498;2024-03-29T08:30:23;3.55;;;2.53;;
60436;SDS011;46289;51.992;4.498;2024-03-29T08:32:24;5.32;;;2.58;;
60436;SDS011;46289;51.992;4.498;2024-03-29T08:34:25;4.50;;;2.40;;
60436;SDS011;46289;51.992;4.498;2024-03-29T08:36:26;5.15;;;2.60;;
60436;SDS011;46289;51.992;4.498;2024-03-29T08:38:30;4.13;;;2.25;;
60436;SDS011;46289;51.992;4.498;2024-03-29T08:40:31;3.63;;;2.08;;
60436;SDS011;46289;51.992;4.498;2024-03-29T08:42:32;5.07;;;2.10;;
60436;SDS011;46289;51.992;4.498;2024-03-29T08:44:33;3.88;;;1.85;;
60436;SDS011;46289;51.992;4.498;2024-03-29T08:46:34;3.13;;;1.95;;
60436;SDS011;46289;51.992;4.498;2024-03-29T08:48:35;5.63;;;2.28;;
60436;SDS011;46289;51.992;4.498;2024-03-29T08:50:37;3.42;;;1.67;;
60436;SDS011;46289;51.992;4.498;2024-03-29T08:52:38;2.53;;;1.60;;
60436;SDS011;46289;51.992;4.498;2024-03-29T08:54:42;1.42;;;1.33;;
60436;SDS011;46289;51.992;4.498;2024-03-29T08:56:44;2.75;;;1.50;;
60436;SDS011;46289;51.992;4.498;2024-03-29T08:58:45;2.65;;;1.75;;
60436;SDS011;46289;51.992;4.498;2024-03-29T09:00:52;4.00;;;1.55;;
60436;SDS011;46289;51.992;4.498;2024-03-29T09:02:54;1.65;;;1.45;;
60436;SDS011;46289;51.992;4.498;2024-03-29T09:04:55;2.50;;;1.50;;
60436;SDS011;46289;51.992;4.498;2024-03-29T09:06:56;2.53;;;1.42;;
60436;SDS011;46289;51.992;4.498;2024-03-29T09:08:58;3.88;;;1.67;;
60436;SDS011;46289;51.992;4.498;2024-03-29T09:11:01;2.63;;;1.50;;
60436;SDS011;46289;51.992;4.498;2024-03-29T09:13:03;2.13;;;1.35;;
60436;SDS011;46289;51.992;4.498;2024-03-29T09:15:05;2.08;;;1.80;;
60436;SDS011;46289;51.992;4.498;2024-03-29T09:17:07;2.88;;;1.58;;
60436;SDS011;46289;51.992;4.498;2024-03-29T09:19:11;2.67;;;1.50;;
60436;SDS011;46289;51.992;4.498;2024-03-29T09:21:12;2.60;;;1.77;;
60436;SDS011;46289;51.992;4.498;2024-03-29T09:23:13;1.83;;;1.52;;
60436;SDS011;46289;51.992;4.498;2024-03-29T09:25:15;1.90;;;1.40;;
60436;SDS011;46289;51.992;4.498;2024-03-29T09:27:18;3.30;;;1.55;;
60436;SDS011;46289;51.992;4.498;2024-03-29T09:29:19;1.45;;;1.27;;
60436;SDS011;46289;51.992;4.498;2024-03-29T09:31:20;3.53;;;1.63;;
60436;SDS011;46289;51.992;4.498;2024-03-29T09:33:22;1.33;;;1.23;;
60436;SDS011;46289;51.992;4.498;2024-03-29T09:35:23;2.88;;;1.40;;
60436;SDS011;46289;51.992;4.498;2024-03-29T09:37:24;2.65;;;1.58;;
60436;SDS011;46289;51.992;4.498;2024-03-29T09:39:25;2.05;;;1.70;;
60436;SDS011;46289;51.992;4.498;2024-03-29T09:41:26;3.30;;;1.90;;
60436;SDS011;46289;51.992;4.498;2024-03-29T09:43:32;4.47;;;1.88;;
60436;SDS011;46289;51.992;4.498;2024-03-29T09:45:33;2.05;;;1.70;;
60436;SDS011;46289;51.992;4.498;2024-03-29T09:47:35;2.63;;;1.98;;
60436;SDS011;46289;51.992;4.498;2024-03-29T09:49:38;3.40;;;1.90;;
60436;SDS011;46289;51.992;4.498;2024-03-29T09:51:42;2.10;;;1.70;;
60436;SDS011;46289;51.992;4.498;2024-03-29T09:53:45;2.13;;;1.92;;
60436;SDS011;46289;51.992;4.498;2024-03-29T09:55:47;3.47;;;2.20;;
60436;SDS011;46289;51.992;4.498;2024-03-29T09:57:48;2.75;;;2.03;;
60436;SDS011;46289;51.992;4.498;2024-03-29T09:59:52;5.10;;;1.90;;
60436;SDS011;46289;51.992;4.498;2024-03-29T10:01:54;4.70;;;2.03;;
60436;SDS011;46289;51.992;4.498;2024-03-29T10:03:55;3.08;;;2.35;;
60436;SDS011;46289;51.992;4.498;2024-03-29T10:05:59;4.60;;;2.42;;
60436;SDS011;46289;51.992;4.498;2024-03-29T10:08:01;3.15;;;2.40;;
60436;SDS011;46289;51.992;4.498;2024-03-29T10:10:05;3.90;;;2.60;;
60436;SDS011;46289;51.992;4.498;2024-03-29T10:12:07;4.40;;;2.45;;
60436;SDS011;46289;51.992;4.498;2024-03-29T10:14:08;4.88;;;2.78;;
60436;SDS011;46289;51.992;4.498;2024-03-29T10:16:12;4.18;;;2.53;;
60436;SDS011;46289;51.992;4.498;2024-03-29T10:18:13;3.30;;;2.28;;
60436;SDS011;46289;51.992;4.498;2024-03-29T10:20:15;4.75;;;2.25;;
60436;SDS011;46289;51.992;4.498;2024-03-29T10:22:16;3.85;;;2.20;;
60436;SDS011;46289;51.992;4.498;2024-03-29T10:24:18;3.97;;;2.25;;
60436;SDS011;46289;51.992;4.498;2024-03-29T10:26:20;2.08;;;1.88;;
60436;SDS011;46289;51.992;4.498;2024-03-29T10:28:22;3.65;;;2.17;;
60436;SDS011;46289;51.992;4.498;2024-03-29T10:30:24;4.88;;;2.50;;
60436;SDS011;46289;51.992;4.498;2024-03-29T10:32:28;4.43;;;2.40;;
60436;SDS011;46289;51.992;4.498;2024-03-29T10:34:30;8.48;;;2.58;;
60436;SDS011;46289;51.992;4.498;2024-03-29T10:36:32;4.70;;;2.67;;
60436;SDS011;46289;51.992;4.498;2024-03-29T10:38:34;3.53;;;2.00;;
60436;SDS011;46289;51.992;4.498;2024-03-29T10:40:35;7.13;;;2.08;;
60436;SDS011;46289;51.992;4.498;2024-03-29T10:42:38;3.67;;;2.30;;
60436;SDS011;46289;51.992;4.498;2024-03-29T10:44:41;2.97;;;2.00;;
60436;SDS011;46289;51.992;4.498;2024-03-29T10:46:43;5.28;;;2.10;;
60436;SDS011;46289;51.992;4.498;2024-03-29T10:48:48;5.13;;;3.30;;
60436;SDS011;46289;51.992;4.498;2024-03-29T10:50:50;2.53;;;2.15;;
60436;SDS011;46289;51.992;4.498;2024-03-29T10:52:53;3.55;;;2.10;;
60436;SDS011;46289;51.992;4.498;2024-03-29T10:54:56;2.95;;;2.15;;
60436;SDS011;46289;51.992;4.498;2024-03-29T10:56:59;3.90;;;2.40;;
60436;SDS011;46289;51.992;4.498;2024-03-29T10:59:04;3.70;;;2.35;;
60436;SDS011;46289;51.992;4.498;2024-03-29T11:01:13;3.83;;;2.45;;
60436;SDS011;46289;51.992;4.498;2024-03-29T11:03:16;5.30;;;2.40;;
60436;SDS011;46289;51.992;4.498;2024-03-29T11:05:23;5.63;;;2.90;;
60436;SDS011;46289;51.992;4.498;2024-03-29T11:07:26;4.35;;;2.20;;
60436;SDS011;46289;51.992;4.498;2024-03-29T11:09:28;3.72;;;2.22;;
60436;SDS011;46289;51.992;4.498;2024-03-29T11:11:34;6.15;;;3.13;;
60436;SDS011;46289;51.992;4.498;2024-03-29T11:13:37;5.28;;;2.85;;
60436;SDS011;46289;51.992;4.498;2024-03-29T11:15:44;3.72;;;2.45;;
60436;SDS011;46289;51.992;4.498;2024-03-29T11:17:46;3.45;;;2.05;;
60436;SDS011;46289;51.992;4.498;2024-03-29T11:19:48;3.13;;;2.47;;
60436;SDS011;46289;51.992;4.498;2024-03-29T11:21:52;3.65;;;2.25;;
60436;SDS011;46289;51.992;4.498;2024-03-29T11:23:54;4.80;;;2.83;;
60436;SDS011;46289;51.992;4.498;2024-03-29T11:25:55;8.18;;;2.90;;
60436;SDS011;46289;51.992;4.498;2024-03-29T11:28:03;4.18;;;2.40;;
60436;SDS011;46289;51.992;4.498;2024-03-29T11:30:06;4.97;;;2.80;;
60436;SDS011;46289;51.992;4.498;2024-03-29T11:32:10;5.78;;;3.28;;
60436;SDS011;46289;51.992;4.498;2024-03-29T11:34:12;6.60;;;3.00;;
60436;SDS011;46289;51.992;4.498;2024-03-29T11:36:14;6.13;;;3.38;;
60436;SDS011;46289;51.992;4.498;2024-03-29T11:38:19;7.03;;;3.35;;
60436;SDS011;46289;51.992;4.498;2024-03-29T11:40:20;4.70;;;3.05;;
60436;SDS011;46289;51.992;4.498;2024-03-29T11:42:34;4.82;;;2.70;;
60436;SDS011;46289;51.992;4.498;2024-03-29T11:44:36;9.13;;;3.50;;
60436;SDS011;46289;51.992;4.498;2024-03-29T11:46:37;4.72;;;3.17;;
60436;SDS011;46289;51.992;4.498;2024-03-29T11:48:39;7.93;;;4.50;;
60436;SDS011;46289;51.992;4.498;2024-03-29T11:50:41;6.70;;;4.00;;
60436;SDS011;46289;51.992;4.498;2024-03-29T11:52:42;7.28;;;3.70;;
60436;SDS011;46289;51.992;4.498;2024-03-29T11:54:46;7.45;;;4.07;;
60436;SDS011;46289;51.992;4.498;2024-03-29T11:56:47;5.95;;;4.20;;
60436;SDS011;46289;51.992;4.498;2024-03-29T11:58:51;7.38;;;4.40;;
60436;SDS011;46289;51.992;4.498;2024-03-29T12:00:53;7.20;;;4.80;;
60436;SDS011;46289;51.992;4.498;2024-03-29T12:02:55;8.98;;;4.40;;
60436;SDS011;46289;51.992;4.498;2024-03-29T12:04:56;7.13;;;4.57;;
60436;SDS011;46289;51.992;4.498;2024-03-29T12:06:57;10.55;;;4.95;;
60436;SDS011;46289;51.992;4.498;2024-03-29T12:09:00;7.20;;;4.72;;
60436;SDS011;46289;51.992;4.498;2024-03-29T12:11:04;8.10;;;5.43;;
60436;SDS011;46289;51.992;4.498;2024-03-29T12:13:06;9.15;;;5.80;;
60436;SDS011;46289;51.992;4.498;2024-03-29T12:15:08;7.32;;;5.25;;
60436;SDS011;46289;51.992;4.498;2024-03-29T12:17:10;7.47;;;4.55;;
60436;SDS011;46289;51.992;4.498;2024-03-29T12:19:21;8.60;;;4.93;;
60436;SDS011;46289;51.992;4.498;2024-03-29T12:21:23;8.98;;;4.97;;
60436;SDS011;46289;51.992;4.498;2024-03-29T12:23:25;7.78;;;5.45;;